sensor_id;sensor_type;location;lat;lon;timestamp;P1;durP1;ratioP1;P2;durP2;ratioP2
19946;SDS011;10135;50.702;7.276;2023-07-20T05:01:17;2.37;;;2.10;;
19946;SDS011;10135;50.702;7.276;2023-07-20T05:03:26;4.25;;;2.20;;
19946;SDS011;10135;50.702;7.276;2023-07-20T05:05:28;2.17;;;1.87;;
19946;SDS011;10135;50.702;7.276;2023-07-20T05:07:28;1.85;;;1.75;;
19946;SDS011;10135;50.702;7.276;2023-07-20T05:09:29;1.95;;;1.85;;
19946;SDS011;10135;50.702;7.276;2023-07-20T05:11:29;2.00;;;1.83;;
19946;SDS011;10135;50.702;7.276;2023-07-20T05:13:30;4.15;;;2.00;;
19946;SDS011;10135;50.702;7.276;2023-07-20T05:15:32;5.72;;;2.08;;
19946;SDS011;10135;50.702;7.276;2023-07-20T05:17:34;3.40;;;2.15;;
19946;SDS011;10135;50.702;7.276;2023-07-20T05:19:35;2.83;;;2.40;;
19946;SDS011;10135;50.702;7.276;2023-07-20T05:21:36;3.25;;;2.30;;
19946;SDS011;10135;50.702;7.276;2023-07-20T05:23:36;6.47;;;1.95;;
19946;SDS011;10135;50.702;7.276;2023-07-20T05:25:37;3.37;;;1.90;;
19946;SDS011;10135;50.702;7.276;2023-07-20T05:27:38;2.40;;;2.20;;
19946;SDS011;10135;50.702;7.276;2023-07-20T05:29:44;3.45;;;2.08;;
19946;SDS011;10135;50.702;7.276;2023-07-20T05:31:45;4.83;;;2.37;;
19946;SDS011;10135;50.702;7.276;2023-07-20T05:33:46;2.90;;;2.05;;
19946;SDS011;10135;50.702;7.276;2023-07-20T05:35:47;2.90;;;2.10;;
19946;SDS011;10135;50.702;7.276;2023-07-20T05:37:48;2.83;;;2.10;;
19946;SDS011;10135;50.702;7.276;2023-07-20T05:39:48;2.28;;;2.08;;
19946;SDS011;10135;50.702;7.276;2023-07-20T05:41:49;4.75;;;2.03;;
19946;SDS011;10135;50.702;7.276;2023-07-20T05:43:50;2.50;;;1.80;;
19946;SDS011;10135;50.702;7.276;2023-07-20T05:45:51;5.10;;;2.75;;
19946;SDS011;10135;50.702;7.276;2023-07-20T05:47:52;5.13;;;2.53;;
19946;SDS011;10135;50.702;7.276;2023-07-20T05:49:52;3.58;;;2.55;;
19946;SDS011;10135;50.702;7.276;2023-07-20T05:51:54;4.75;;;2.88;;
19946;SDS011;10135;50.702;7.276;2023-07-20T05:53:56;3.30;;;2.47;;
19946;SDS011;10135;50.702;7.276;2023-07-20T05:55:57;3.60;;;3.03;;
19946;SDS011;10135;50.702;7.276;2023-07-20T05:57:57;4.43;;;3.10;;
19946;SDS011;10135;50.702;7.276;2023-07-20T05:59:58;3.60;;;3.22;;
19946;SDS011;10135;50.702;7.276;2023-07-20T06:01:59;4.20;;;2.72;;
19946;SDS011;10135;50.702;7.276;2023-07-20T06:03:59;4.25;;;3.28;;
19946;SDS011;10135;50.702;7.276;2023-07-20T06:06:00;6.05;;;3.35;;
19946;SDS011;10135;50.702;7.276;2023-07-20T06:08:02;3.75;;;3.20;;
19946;SDS011;10135;50.702;7.276;2023-07-20T06:10:02;4.38;;;3.22;;
19946;SDS011;10135;50.702;7.276;2023-07-20T06:12:05;3.58;;;2.95;;
19946;SDS011;10135;50.702;7.276;2023-07-20T06:14:06;5.78;;;3.50;;
19946;SDS011;10135;50.702;7.276;2023-07-20T06:16:07;9.27;;;2.92;;
19946;SDS011;10135;50.702;7.276;2023-07-20T06:18:07;4.18;;;2.90;;
19946;SDS011;10135;50.702;7.276;2023-07-20T06:20:08;3.65;;;2.90;;
19946;SDS011;10135;50.702;7.276;2023-07-20T06:22:09;3.80;;;3.05;;
19946;SDS011;10135;50.702;7.276;2023-07-20T06:24:10;4.35;;;3.10;;
19946;SDS011;10135;50.702;7.276;2023-07-20T06:26:11;3.47;;;2.90;;
19946;SDS011;10135;50.702;7.276;2023-07-20T06:28:12;4.22;;;2.75;;
19946;SDS011;10135;50.702;7.276;2023-07-20T06:30:13;5.55;;;3.72;;
19946;SDS011;10135;50.702;7.276;2023-07-20T06:32:14;4.93;;;3.22;;
19946;SDS011;10135;50.702;7.276;2023-07-20T06:34:14;4.13;;;3.47;;
19946;SDS011;10135;50.702;7.276;2023-07-20T06:36:17;4.28;;;3.20;;
19946;SDS011;10135;50.702;7.276;2023-07-20T06:38:18;6.53;;;3.45;;
19946;SDS011;10135;50.702;7.276;2023-07-20T06:40:19;3.53;;;3.22;;
19946;SDS011;10135;50.702;7.276;2023-07-20T06:42:21;4.22;;;3.08;;
19946;SDS011;10135;50.702;7.276;2023-07-20T06:44:21;4.80;;;3.28;;
19946;SDS011;10135;50.702;7.276;2023-07-20T06:46:23;5.30;;;3.42;;
19946;SDS011;10135;50.702;7.276;2023-07-20T06:48:26;4.93;;;3.40;;
19946;SDS011;10135;50.702;7.276;2023-07-20T06:50:27;5.07;;;3.38;;
19946;SDS011;10135;50.702;7.276;2023-07-20T06:52:27;3.15;;;2.85;;
19946;SDS011;10135;50.702;7.276;2023-07-20T06:54:29;3.22;;;2.70;;
19946;SDS011;10135;50.702;7.276;2023-07-20T06:56:29;6.22;;;3.30;;
19946;SDS011;10135;50.702;7.276;2023-07-20T06:58:30;4.25;;;3.30;;
19946;SDS011;10135;50.702;7.276;2023-07-20T07:00:30;3.03;;;2.83;;
19946;SDS011;10135;50.702;7.276;2023-07-20T07:02:31;4.50;;;3.10;;
19946;SDS011;10135;50.702;7.276;2023-07-20T07:04:32;3.42;;;3.13;;
19946;SDS011;10135;50.702;7.276;2023-07-20T07:06:32;4.72;;;3.20;;
19946;SDS011;10135;50.702;7.276;2023-07-20T07:08:33;4.05;;;3.20;;
19946;SDS011;10135;50.702;7.276;2023-07-20T07:10:35;3.25;;;2.95;;
19946;SDS011;10135;50.702;7.276;2023-07-20T07:12:36;3.58;;;2.92;;
19946;SDS011;10135;50.702;7.276;2023-07-20T07:14:37;3.60;;;2.72;;
19946;SDS011;10135;50.702;7.276;2023-07-20T07:16:37;4.75;;;3.17;;
19946;SDS011;10135;50.702;7.276;2023-07-20T07:18:38;5.25;;;3.22;;
19946;SDS011;10135;50.702;7.276;2023-07-20T07:20:40;7.72;;;2.92;;
19946;SDS011;10135;50.702;7.276;2023-07-20T07:22:40;3.03;;;2.72;;
19946;SDS011;10135;50.702;7.276;2023-07-20T07:24:43;3.35;;;3.05;;
19946;SDS011;10135;50.702;7.276;2023-07-20T07:26:44;3.78;;;2.80;;
19946;SDS011;10135;50.702;7.276;2023-07-20T07:28:45;3.95;;;3.20;;
19946;SDS011;10135;50.702;7.276;2023-07-20T07:30:46;4.43;;;2.92;;
19946;SDS011;10135;50.702;7.276;2023-07-20T07:32:46;3.80;;;2.97;;
19946;SDS011;10135;50.702;7.276;2023-07-20T07:34:47;6.32;;;2.97;;
19946;SDS011;10135;50.702;7.276;2023-07-20T07:36:48;5.72;;;3.05;;
19946;SDS011;10135;50.702;7.276;2023-07-20T07:38:50;3.67;;;3.10;;
19946;SDS011;10135;50.702;7.276;2023-07-20T07:40:50;4.90;;;2.72;;
19946;SDS011;10135;50.702;7.276;2023-07-20T07:42:51;5.40;;;3.03;;
19946;SDS011;10135;50.702;7.276;2023-07-20T07:44:51;4.88;;;2.95;;
19946;SDS011;10135;50.702;7.276;2023-07-20T07:46:52;4.95;;;3.25;;
19946;SDS011;10135;50.702;7.276;2023-07-20T07:48:53;5.55;;;2.78;;
19946;SDS011;10135;50.702;7.276;2023-07-20T07:50:53;2.97;;;2.78;;
19946;SDS011;10135;50.702;7.276;2023-07-20T07:52:54;4.32;;;2.97;;
19946;SDS011;10135;50.702;7.276;2023-07-20T07:54:55;6.38;;;3.17;;
19946;SDS011;10135;50.702;7.276;2023-07-20T07:56:56;3.15;;;2.55;;
19946;SDS011;10135;50.702;7.276;2023-07-20T07:58:56;3.38;;;3.00;;
19946;SDS011;10135;50.702;7.276;2023-07-20T08:00:57;3.17;;;2.70;;
19946;SDS011;10135;50.702;7.276;2023-07-20T08:02:58;2.75;;;2.55;;
19946;SDS011;10135;50.702;7.276;2023-07-20T08:04:59;3.13;;;2.92;;
19946;SDS011;10135;50.702;7.276;2023-07-20T08:07:04;4.15;;;2.80;;
19946;SDS011;10135;50.702;7.276;2023-07-20T08:09:05;2.80;;;2.60;;
19946;SDS011;10135;50.702;7.276;2023-07-20T08:11:06;3.42;;;3.20;;
19946;SDS011;10135;50.702;7.276;2023-07-20T08:13:06;3.10;;;3.00;;
19946;SDS011;10135;50.702;7.276;2023-07-20T08:15:07;2.80;;;2.60;;
19946;SDS011;10135;50.702;7.276;2023-07-20T08:17:10;2.95;;;2.75;;
19946;SDS011;10135;50.702;7.276;2023-07-20T08:19:11;3.70;;;3.40;;
19946;SDS011;10135;50.702;7.276;2023-07-20T08:21:12;4.72;;;3.35;;
19946;SDS011;10135;50.702;7.276;2023-07-20T08:23:13;3.97;;;3.47;;
19946;SDS011;10135;50.702;7.276;2023-07-20T08:25:13;4.88;;;3.40;;
19946;SDS011;10135;50.702;7.276;2023-07-20T08:27:14;4.75;;;3.10;;
19946;SDS011;10135;50.702;7.276;2023-07-20T08:29:15;6.72;;;3.20;;
19946;SDS011;10135;50.702;7.276;2023-07-20T08:31:15;3.58;;;2.97;;
19946;SDS011;10135;50.702;7.276;2023-07-20T08:33:17;2.97;;;2.78;;
19946;SDS011;10135;50.702;7.276;2023-07-20T08:35:19;3.30;;;3.10;;
19946;SDS011;10135;50.702;7.276;2023-07-20T08:37:20;3.30;;;3.00;;
19946;SDS011;10135;50.702;7.276;2023-07-20T08:39:21;3.42;;;2.70;;
19946;SDS011;10135;50.702;7.276;2023-07-20T08:41:22;3.25;;;3.00;;
19946;SDS011;10135;50.702;7.276;2023-07-20T08:43:23;3.08;;;2.80;;
19946;SDS011;10135;50.702;7.276;2023-07-20T08:45:25;4.35;;;2.83;;
19946;SDS011;10135;50.702;7.276;2023-07-20T08:47:31;2.80;;;2.60;;
19946;SDS011;10135;50.702;7.276;2023-07-20T08:49:33;3.33;;;2.85;;
19946;SDS011;10135;50.702;7.276;2023-07-20T08:51:39;3.00;;;2.58;;
19946;SDS011;10135;50.702;7.276;2023-07-20T08:53:41;2.58;;;2.38;;
19946;SDS011;10135;50.702;7.276;2023-07-20T08:55:45;4.45;;;2.50;;
19946;SDS011;10135;50.702;7.276;2023-07-20T08:57:48;2.53;;;2.33;;
19946;SDS011;10135;50.702;7.276;2023-07-20T08:59:52;3.80;;;2.50;;
19946;SDS011;10135;50.702;7.276;2023-07-20T09:01:54;2.83;;;2.53;;
19946;SDS011;10135;50.702;7.276;2023-07-20T09:04:00;3.47;;;2.40;;
19946;SDS011;10135;50.702;7.276;2023-07-20T09:06:01;2.50;;;2.25;;
19946;SDS011;10135;50.702;7.276;2023-07-20T09:08:02;3.58;;;2.10;;
19946;SDS011;10135;50.702;7.276;2023-07-20T09:10:06;3.33;;;2.42;;
19946;SDS011;10135;50.702;7.276;2023-07-20T09:12:14;2.40;;;2.20;;
19946;SDS011;10135;50.702;7.276;2023-07-20T09:14:16;2.40;;;2.30;;
19946;SDS011;10135;50.702;7.276;2023-07-20T09:16:17;3.72;;;2.28;;
19946;SDS011;10135;50.702;7.276;2023-07-20T09:18:27;4.13;;;2.40;;
19946;SDS011;10135;50.702;7.276;2023-07-20T09:20:30;2.47;;;2.28;;
19946;SDS011;10135;50.702;7.276;2023-07-20T09:22:34;3.30;;;2.60;;
19946;SDS011;10135;50.702;7.276;2023-07-20T09:24:34;2.65;;;2.50;;
19946;SDS011;10135;50.702;7.276;2023-07-20T09:26:40;2.13;;;2.03;;
19946;SDS011;10135;50.702;7.276;2023-07-20T09:28:43;1.80;;;1.80;;
19946;SDS011;10135;50.702;7.276;2023-07-20T09:30:53;2.50;;;2.10;;
19946;SDS011;10135;50.702;7.276;2023-07-20T09:32:57;2.63;;;2.25;;
19946;SDS011;10135;50.702;7.276;2023-07-20T09:34:58;2.28;;;2.15;;
19946;SDS011;10135;50.702;7.276;2023-07-20T09:36:59;2.30;;;2.20;;
19946;SDS011;10135;50.702;7.276;2023-07-20T09:39:00;2.13;;;1.92;;
19946;SDS011;10135;50.702;7.276;2023-07-20T09:41:07;2.30;;;2.10;;
19946;SDS011;10135;50.702;7.276;2023-07-20T09:43:08;2.28;;;2.10;;
19946;SDS011;10135;50.702;7.276;2023-07-20T09:45:10;2.17;;;2.08;;
19946;SDS011;10135;50.702;7.276;2023-07-20T09:47:11;4.80;;;2.20;;
19946;SDS011;10135;50.702;7.276;2023-07-20T09:49:12;2.28;;;2.13;;
19946;SDS011;10135;50.702;7.276;2023-07-20T09:51:13;2.22;;;1.80;;
19946;SDS011;10135;50.702;7.276;2023-07-20T09:53:14;1.92;;;1.83;;
19946;SDS011;10135;50.702;7.276;2023-07-20T09:55:18;2.25;;;1.90;;
19946;SDS011;10135;50.702;7.276;2023-07-20T09:57:21;2.13;;;2.00;;
19946;SDS011;10135;50.702;7.276;2023-07-20T09:59:21;2.63;;;1.80;;
19946;SDS011;10135;50.702;7.276;2023-07-20T10:01:22;1.67;;;1.58;;
19946;SDS011;10135;50.702;7.276;2023-07-20T10:03:28;2.38;;;1.80;;
19946;SDS011;10135;50.702;7.276;2023-07-20T10:05:33;3.33;;;1.90;;
19946;SDS011;10135;50.702;7.276;2023-07-20T10:07:43;1.77;;;1.70;;
19946;SDS011;10135;50.702;7.276;2023-07-20T10:09:49;1.70;;;1.70;;
19946;SDS011;10135;50.702;7.276;2023-07-20T10:11:53;1.90;;;1.80;;
19946;SDS011;10135;50.702;7.276;2023-07-20T10:13:56;1.80;;;1.73;;
19946;SDS011;10135;50.702;7.276;2023-07-20T10:16:03;1.88;;;1.77;;
19946;SDS011;10135;50.702;7.276;2023-07-20T10:18:17;2.83;;;1.92;;
19946;SDS011;10135;50.702;7.276;2023-07-20T10:20:26;2.00;;;1.90;;
19946;SDS011;10135;50.702;7.276;2023-07-20T10:22:28;1.67;;;1.60;;
19946;SDS011;10135;50.702;7.276;2023-07-20T10:24:35;1.77;;;1.67;;
19946;SDS011;10135;50.702;7.276;2023-07-20T10:26:39;1.80;;;1.70;;
19946;SDS011;10135;50.702;7.276;2023-07-20T10:28:40;2.45;;;1.83;;
19946;SDS011;10135;50.702;7.276;2023-07-20T10:30:42;1.98;;;1.85;;
19946;SDS011;10135;50.702;7.276;2023-07-20T10:32:43;3.53;;;1.95;;
19946;SDS011;10135;50.702;7.276;2023-07-20T10:34:51;2.08;;;1.60;;
19946;SDS011;10135;50.702;7.276;2023-07-20T10:36:52;1.63;;;1.52;;
19946;SDS011;10135;50.702;7.276;2023-07-20T10:38:55;1.85;;;1.70;;
19946;SDS011;10135;50.702;7.276;2023-07-20T10:40:57;1.48;;;1.48;;
19946;SDS011;10135;50.702;7.276;2023-07-20T10:42:58;1.92;;;1.80;;
19946;SDS011;10135;50.702;7.276;2023-07-20T10:45:03;1.40;;;1.40;;
19946;SDS011;10135;50.702;7.276;2023-07-20T10:47:09;1.60;;;1.50;;
19946;SDS011;10135;50.702;7.276;2023-07-20T10:49:12;1.83;;;1.50;;
19946;SDS011;10135;50.702;7.276;2023-07-20T10:51:19;2.75;;;2.00;;
19946;SDS011;10135;50.702;7.276;2023-07-20T10:53:21;1.67;;;1.58;;
19946;SDS011;10135;50.702;7.276;2023-07-20T10:55:21;1.30;;;1.30;;
19946;SDS011;10135;50.702;7.276;2023-07-20T10:57:23;1.77;;;1.67;;
19946;SDS011;10135;50.702;7.276;2023-07-20T11:01:35;1.40;;;1.30;;
19946;SDS011;10135;50.702;7.276;2023-07-20T11:03:37;7.70;;;2.00;;
19946;SDS011;10135;50.702;7.276;2023-07-20T11:05:40;1.60;;;1.50;;
19946;SDS011;10135;50.702;7.276;2023-07-20T11:07:42;1.45;;;1.42;;
19946;SDS011;10135;50.702;7.276;2023-07-20T11:09:43;2.42;;;1.65;;
19946;SDS011;10135;50.702;7.276;2023-07-20T11:11:45;1.45;;;1.40;;
19946;SDS011;10135;50.702;7.276;2023-07-20T11:16:04;1.52;;;1.50;;
19946;SDS011;10135;50.702;7.276;2023-07-20T11:18:12;1.70;;;1.60;;
19946;SDS011;10135;50.702;7.276;2023-07-20T11:20:13;2.00;;;1.60;;
19946;SDS011;10135;50.702;7.276;2023-07-20T11:22:16;1.70;;;1.60;;
19946;SDS011;10135;50.702;7.276;2023-07-20T11:24:18;2.70;;;1.50;;
19946;SDS011;10135;50.702;7.276;2023-07-20T11:26:19;2.85;;;1.63;;
19946;SDS011;10135;50.702;7.276;2023-07-20T11:28:20;1.45;;;1.45;;
19946;SDS011;10135;50.702;7.276;2023-07-20T11:30:20;1.95;;;1.58;;
19946;SDS011;10135;50.702;7.276;2023-07-20T11:32:21;1.85;;;1.75;;
19946;SDS011;10135;50.702;7.276;2023-07-20T11:34:23;1.50;;;1.50;;
19946;SDS011;10135;50.702;7.276;2023-07-20T11:36:24;1.40;;;1.40;;
19946;SDS011;10135;50.702;7.276;2023-07-20T11:38:25;1.98;;;1.38;;
19946;SDS011;10135;50.702;7.276;2023-07-20T11:40:26;1.30;;;1.30;;
19946;SDS011;10135;50.702;7.276;2023-07-20T11:42:26;2.72;;;1.50;;
19946;SDS011;10135;50.702;7.276;2023-07-20T11:44:28;1.60;;;1.60;;
19946;SDS011;10135;50.702;7.276;2023-07-20T11:46:29;1.60;;;1.50;;
19946;SDS011;10135;50.702;7.276;2023-07-20T11:48:30;1.50;;;1.50;;
19946;SDS011;10135;50.702;7.276;2023-07-20T11:50:30;1.55;;;1.55;;
19946;SDS011;10135;50.702;7.276;2023-07-20T11:52:32;1.50;;;1.40;;
19946;SDS011;10135;50.702;7.276;2023-07-20T11:54:35;1.60;;;1.50;;
19946;SDS011;10135;50.702;7.276;2023-07-20T11:56:41;1.45;;;1.38;;
19946;SDS011;10135;50.702;7.276;2023-07-20T11:58:45;1.63;;;1.52;;
19946;SDS011;10135;50.702;7.276;2023-07-20T12:00:47;1.38;;;1.38;;
19946;SDS011;10135;50.702;7.276;2023-07-20T12:02:47;1.40;;;1.30;;
19946;SDS011;10135;50.702;7.276;2023-07-20T12:04:48;1.42;;;1.30;;
19946;SDS011;10135;50.702;7.276;2023-07-20T12:06:49;2.33;;;1.50;;
19946;SDS011;10135;50.702;7.276;2023-07-20T12:08:50;1.45;;;1.35;;
19946;SDS011;10135;50.702;7.276;2023-07-20T12:10:55;1.40;;;1.40;;
19946;SDS011;10135;50.702;7.276;2023-07-20T12:13:02;1.40;;;1.30;;
19946;SDS011;10135;50.702;7.276;2023-07-20T12:15:13;1.42;;;1.42;;
19946;SDS011;10135;50.702;7.276;2023-07-20T12:17:19;1.48;;;1.38;;
19946;SDS011;10135;50.702;7.276;2023-07-20T12:19:20;1.48;;;1.40;;
19946;SDS011;10135;50.702;7.276;2023-07-20T12:21:25;1.45;;;1.38;;
19946;SDS011;10135;50.702;7.276;2023-07-20T12:23:25;1.42;;;1.35;;
19946;SDS011;10135;50.702;7.276;2023-07-20T12:25:32;1.35;;;1.13;;
19946;SDS011;10135;50.702;7.276;2023-07-20T12:27:44;1.50;;;1.42;;
19946;SDS011;10135;50.702;7.276;2023-07-20T12:29:45;4.45;;;1.70;;
19946;SDS011;10135;50.702;7.276;2023-07-20T12:31:45;1.50;;;1.50;;
19946;SDS011;10135;50.702;7.276;2023-07-20T12:33:47;1.85;;;1.75;;
19946;SDS011;10135;50.702;7.276;2023-07-20T12:35:47;4.53;;;1.70;;
19946;SDS011;10135;50.702;7.276;2023-07-20T12:37:49;3.55;;;1.80;;
19946;SDS011;10135;50.702;7.276;2023-07-20T12:39:51;1.77;;;1.65;;
19946;SDS011;10135;50.702;7.276;2023-07-20T12:41:52;1.92;;;1.67;;
19946;SDS011;10135;50.702;7.276;2023-07-20T12:43:53;1.40;;;1.40;;
19946;SDS011;10135;50.702;7.276;2023-07-20T12:45:53;1.50;;;1.40;;
19946;SDS011;10135;50.702;7.276;2023-07-20T12:47:54;1.92;;;1.70;;
19946;SDS011;10135;50.702;7.276;2023-07-20T12:49:55;1.60;;;1.50;;
19946;SDS011;10135;50.702;7.276;2023-07-20T12:51:56;1.63;;;1.52;;
19946;SDS011;10135;50.702;7.276;2023-07-20T12:53:56;1.52;;;1.45;;
19946;SDS011;10135;50.702;7.276;2023-07-20T12:55:57;1.60;;;1.50;;
19946;SDS011;10135;50.702;7.276;2023-07-20T12:58:01;1.55;;;1.45;;
19946;SDS011;10135;50.702;7.276;2023-07-20T13:00:02;1.50;;;1.50;;
19946;SDS011;10135;50.702;7.276;2023-07-20T13:02:05;1.73;;;1.50;;
19946;SDS011;10135;50.702;7.276;2023-07-20T13:04:06;1.45;;;1.45;;
19946;SDS011;10135;50.702;7.276;2023-07-20T13:06:09;1.77;;;1.67;;
19946;SDS011;10135;50.702;7.276;2023-07-20T13:08:09;1.50;;;1.40;;
19946;SDS011;10135;50.702;7.276;2023-07-20T13:10:11;1.50;;;1.40;;
19946;SDS011;10135;50.702;7.276;2023-07-20T13:12:12;1.67;;;1.58;;
19946;SDS011;10135;50.702;7.276;2023-07-20T13:14:12;1.83;;;1.33;;
19946;SDS011;10135;50.702;7.276;2023-07-20T13:16:13;1.20;;;1.20;;
19946;SDS011;10135;50.702;7.276;2023-07-20T13:18:15;1.60;;;1.50;;
19946;SDS011;10135;50.702;7.276;2023-07-20T13:20:15;1.25;;;1.25;;
19946;SDS011;10135;50.702;7.276;2023-07-20T13:22:16;1.27;;;1.27;;
19946;SDS011;10135;50.702;7.276;2023-07-20T13:24:17;1.92;;;1.10;;
19946;SDS011;10135;50.702;7.276;2023-07-20T13:26:17;1.20;;;1.20;;
19946;SDS011;10135;50.702;7.276;2023-07-20T13:28:18;3.25;;;1.33;;
19946;SDS011;10135;50.702;7.276;2023-07-20T13:30:18;1.40;;;1.40;;
19946;SDS011;10135;50.702;7.276;2023-07-20T13:32:21;1.50;;;1.50;;
19946;SDS011;10135;50.702;7.276;2023-07-20T13:34:22;1.30;;;1.30;;
19946;SDS011;10135;50.702;7.276;2023-07-20T13:36:24;1.50;;;1.25;;
19946;SDS011;10135;50.702;7.276;2023-07-20T13:38:25;1.13;;;1.13;;
19946;SDS011;10135;50.702;7.276;2023-07-20T13:40:25;1.60;;;1.50;;
19946;SDS011;10135;50.702;7.276;2023-07-20T13:42:26;3.35;;;1.67;;
19946;SDS011;10135;50.702;7.276;2023-07-20T13:44:26;2.92;;;1.10;;
19946;SDS011;10135;50.702;7.276;2023-07-20T13:46:27;1.30;;;1.20;;
19946;SDS011;10135;50.702;7.276;2023-07-20T13:48:28;1.23;;;1.23;;
19946;SDS011;10135;50.702;7.276;2023-07-20T13:50:28;2.88;;;1.25;;
19946;SDS011;10135;50.702;7.276;2023-07-20T13:52:29;1.25;;;1.15;;
19946;SDS011;10135;50.702;7.276;2023-07-20T13:54:30;1.27;;;1.17;;
19946;SDS011;10135;50.702;7.276;2023-07-20T13:56:30;1.45;;;1.00;;
19946;SDS011;10135;50.702;7.276;2023-07-20T13:58:32;1.10;;;1.10;;
19946;SDS011;10135;50.702;7.276;2023-07-20T14:00:33;1.83;;;1.38;;
19946;SDS011;10135;50.702;7.276;2023-07-20T14:02:34;1.75;;;1.02;;
19946;SDS011;10135;50.702;7.276;2023-07-20T14:04:36;0.98;;;0.98;;
19946;SDS011;10135;50.702;7.276;2023-07-20T14:06:37;1.20;;;1.20;;
19946;SDS011;10135;50.702;7.276;2023-07-20T14:08:38;1.17;;;1.08;;
19946;SDS011;10135;50.702;7.276;2023-07-20T14:10:40;2.00;;;1.10;;
19946;SDS011;10135;50.702;7.276;2023-07-20T14:12:41;1.20;;;1.20;;
19946;SDS011;10135;50.702;7.276;2023-07-20T14:14:42;1.10;;;1.10;;
19946;SDS011;10135;50.702;7.276;2023-07-20T14:16:42;1.10;;;1.10;;
19946;SDS011;10135;50.702;7.276;2023-07-20T14:18:43;2.63;;;1.27;;
19946;SDS011;10135;50.702;7.276;2023-07-20T14:20:47;1.00;;;1.00;;
19946;SDS011;10135;50.702;7.276;2023-07-20T14:22:47;1.05;;;1.05;;
19946;SDS011;10135;50.702;7.276;2023-07-20T14:24:48;1.75;;;1.25;;
19946;SDS011;10135;50.702;7.276;2023-07-20T14:26:49;1.02;;;1.00;;
19946;SDS011;10135;50.702;7.276;2023-07-20T14:28:50;1.20;;;1.20;;
19946;SDS011;10135;50.702;7.276;2023-07-20T14:30:50;1.23;;;1.20;;
19946;SDS011;10135;50.702;7.276;2023-07-20T14:32:51;1.17;;;1.15;;
19946;SDS011;10135;50.702;7.276;2023-07-20T14:34:52;1.00;;;1.00;;
19946;SDS011;10135;50.702;7.276;2023-07-20T14:36:53;0.90;;;0.90;;
19946;SDS011;10135;50.702;7.276;2023-07-20T14:38:53;2.15;;;1.25;;
19946;SDS011;10135;50.702;7.276;2023-07-20T14:40:54;1.38;;;1.27;;
19946;SDS011;10135;50.702;7.276;2023-07-20T14:42:55;1.40;;;1.30;;
19946;SDS011;10135;50.702;7.276;2023-07-20T14:44:56;1.20;;;1.08;;
19946;SDS011;10135;50.702;7.276;2023-07-20T14:46:57;1.13;;;1.13;;
19946;SDS011;10135;50.702;7.276;2023-07-20T14:48:58;0.95;;;0.90;;
19946;SDS011;10135;50.702;7.276;2023-07-20T14:50:58;1.20;;;1.20;;
19946;SDS011;10135;50.702;7.276;2023-07-20T14:52:59;1.15;;;1.15;;
19946;SDS011;10135;50.702;7.276;2023-07-20T14:55:00;1.20;;;1.20;;
19946;SDS011;10135;50.702;7.276;2023-07-20T14:57:00;1.33;;;1.20;;
19946;SDS011;10135;50.702;7.276;2023-07-20T14:59:02;1.17;;;1.10;;
19946;SDS011;10135;50.702;7.276;2023-07-20T15:01:04;1.80;;;1.27;;
19946;SDS011;10135;50.702;7.276;2023-07-20T15:03:05;1.25;;;1.15;;
19946;SDS011;10135;50.702;7.276;2023-07-20T15:05:09;1.02;;;1.02;;
19946;SDS011;10135;50.702;7.276;2023-07-20T15:07:10;1.00;;;1.00;;
19946;SDS011;10135;50.702;7.276;2023-07-20T15:09:11;2.58;;;1.20;;
19946;SDS011;10135;50.702;7.276;2023-07-20T15:11:11;1.15;;;1.15;;
19946;SDS011;10135;50.702;7.276;2023-07-20T15:13:12;1.10;;;1.10;;
19946;SDS011;10135;50.702;7.276;2023-07-20T15:15:13;1.02;;;1.02;;
19946;SDS011;10135;50.702;7.276;2023-07-20T15:17:15;1.10;;;1.10;;
19946;SDS011;10135;50.702;7.276;2023-07-20T15:19:16;1.27;;;1.20;;
19946;SDS011;10135;50.702;7.276;2023-07-20T15:21:16;2.60;;;1.10;;
19946;SDS011;10135;50.702;7.276;2023-07-20T15:23:17;1.02;;;1.02;;
19946;SDS011;10135;50.702;7.276;2023-07-20T15:25:18;2.40;;;1.30;;
19946;SDS011;10135;50.702;7.276;2023-07-20T15:27:19;1.30;;;1.20;;
19946;SDS011;10135;50.702;7.276;2023-07-20T15:29:20;1.10;;;1.10;;
19946;SDS011;10135;50.702;7.276;2023-07-20T15:31:21;0.90;;;0.90;;
19946;SDS011;10135;50.702;7.276;2023-07-20T15:33:21;2.20;;;1.08;;
19946;SDS011;10135;50.702;7.276;2023-07-20T15:35:23;1.08;;;1.08;;
19946;SDS011;10135;50.702;7.276;2023-07-20T15:37:24;3.75;;;0.93;;
19946;SDS011;10135;50.702;7.276;2023-07-20T15:39:24;1.33;;;1.00;;
19946;SDS011;10135;50.702;7.276;2023-07-20T15:41:26;5.03;;;1.30;;
19946;SDS011;10135;50.702;7.276;2023-07-20T15:43:27;1.35;;;1.20;;
19946;SDS011;10135;50.702;7.276;2023-07-20T15:45:28;1.33;;;1.10;;
19946;SDS011;10135;50.702;7.276;2023-07-20T15:47:30;1.23;;;1.20;;
19946;SDS011;10135;50.702;7.276;2023-07-20T15:49:30;1.08;;;1.08;;
19946;SDS011;10135;50.702;7.276;2023-07-20T15:51:36;1.13;;;1.13;;
19946;SDS011;10135;50.702;7.276;2023-07-20T15:53:38;1.20;;;1.17;;
19946;SDS011;10135;50.702;7.276;2023-07-20T15:55:39;1.65;;;1.35;;
19946;SDS011;10135;50.702;7.276;2023-07-20T15:57:39;1.10;;;1.10;;
19946;SDS011;10135;50.702;7.276;2023-07-20T15:59:40;1.30;;;1.20;;
19946;SDS011;10135;50.702;7.276;2023-07-20T16:01:41;1.35;;;1.08;;
19946;SDS011;10135;50.702;7.276;2023-07-20T16:03:42;1.10;;;1.10;;
19946;SDS011;10135;50.702;7.276;2023-07-20T16:05:43;1.00;;;1.00;;
19946;SDS011;10135;50.702;7.276;2023-07-20T16:07:43;1.38;;;1.27;;
19946;SDS011;10135;50.702;7.276;2023-07-20T16:09:44;0.98;;;0.98;;
19946;SDS011;10135;50.702;7.276;2023-07-20T16:11:45;1.00;;;1.00;;
19946;SDS011;10135;50.702;7.276;2023-07-20T16:13:45;1.20;;;1.20;;
19946;SDS011;10135;50.702;7.276;2023-07-20T16:15:46;1.05;;;1.05;;
19946;SDS011;10135;50.702;7.276;2023-07-20T16:17:49;1.13;;;1.08;;
19946;SDS011;10135;50.702;7.276;2023-07-20T16:19:50;1.40;;;1.30;;
19946;SDS011;10135;50.702;7.276;2023-07-20T16:21:51;1.63;;;1.17;;
19946;SDS011;10135;50.702;7.276;2023-07-20T16:23:51;2.03;;;1.30;;
19946;SDS011;10135;50.702;7.276;2023-07-20T16:25:52;0.98;;;0.98;;
19946;SDS011;10135;50.702;7.276;2023-07-20T16:27:53;0.90;;;0.90;;
19946;SDS011;10135;50.702;7.276;2023-07-20T16:29:53;2.20;;;1.10;;
19946;SDS011;10135;50.702;7.276;2023-07-20T16:31:54;1.10;;;1.05;;
19946;SDS011;10135;50.702;7.276;2023-07-20T16:33:55;1.38;;;1.00;;
19946;SDS011;10135;50.702;7.276;2023-07-20T16:35:55;1.35;;;1.13;;
19946;SDS011;10135;50.702;7.276;2023-07-20T16:37:56;1.23;;;1.13;;
19946;SDS011;10135;50.702;7.276;2023-07-20T16:39:57;1.17;;;1.17;;
19946;SDS011;10135;50.702;7.276;2023-07-20T16:41:57;1.42;;;1.00;;
19946;SDS011;10135;50.702;7.276;2023-07-20T16:43:58;1.30;;;1.30;;
19946;SDS011;10135;50.702;7.276;2023-07-20T16:45:59;1.30;;;1.20;;
19946;SDS011;10135;50.702;7.276;2023-07-20T16:48:05;0.93;;;0.93;;
19946;SDS011;10135;50.702;7.276;2023-07-20T16:50:06;1.48;;;1.10;;
19946;SDS011;10135;50.702;7.276;2023-07-20T16:52:07;1.00;;;1.00;;
19946;SDS011;10135;50.702;7.276;2023-07-20T16:54:08;2.17;;;1.10;;
19946;SDS011;10135;50.702;7.276;2023-07-20T16:56:09;1.25;;;1.25;;
19946;SDS011;10135;50.702;7.276;2023-07-20T16:58:09;1.17;;;1.17;;
19946;SDS011;10135;50.702;7.276;2023-07-20T17:00:10;0.90;;;0.90;;
19946;SDS011;10135;50.702;7.276;2023-07-20T17:02:12;1.00;;;1.00;;
19946;SDS011;10135;50.702;7.276;2023-07-20T17:04:12;1.17;;;1.15;;
19946;SDS011;10135;50.702;7.276;2023-07-20T17:06:15;1.65;;;1.20;;
19946;SDS011;10135;50.702;7.276;2023-07-20T17:08:16;1.20;;;1.20;;
19946;SDS011;10135;50.702;7.276;2023-07-20T17:10:16;2.47;;;1.00;;
19946;SDS011;10135;50.702;7.276;2023-07-20T17:12:17;1.05;;;1.05;;
19946;SDS011;10135;50.702;7.276;2023-07-20T17:14:18;1.00;;;1.00;;
19946;SDS011;10135;50.702;7.276;2023-07-20T17:16:18;0.90;;;0.90;;
19946;SDS011;10135;50.702;7.276;2023-07-20T17:18:19;2.83;;;1.10;;